sensor_id;sensor_type;location;lat;lon;timestamp;pressure;altitude;pressure_sealevel;temperature
20848;BMP180;10584;50.854;12.902;2022-12-08T00:03:58;97380.00;;;1.90
20848;BMP180;10584;50.854;12.902;2022-12-08T00:09:01;97374.00;;;2.00
20848;BMP180;10584;50.854;12.902;2022-12-08T00:14:25;97371.00;;;2.00
20848;BMP180;10584;50.854;12.902;2022-12-08T00:19:29;97369.00;;;2.00
20848;BMP180;10584;50.854;12.902;2022-12-08T00:24:35;97372.00;;;2.10
20848;BMP180;10584;50.854;12.902;2022-12-08T00:29:45;97368.00;;;1.80
20848;BMP180;10584;50.854;12.902;2022-12-08T00:34:48;97369.00;;;1.90
20848;BMP180;10584;50.854;12.902;2022-12-08T00:39:51;97353.00;;;1.80
20848;BMP180;10584;50.854;12.902;2022-12-08T00:44:54;97359.00;;;1.80
20848;BMP180;10584;50.854;12.902;2022-12-08T00:49:58;97354.00;;;1.90
20848;BMP180;10584;50.854;12.902;2022-12-08T00:55:02;97352.00;;;1.90
20848;BMP180;10584;50.854;12.902;2022-12-08T01:00:06;97359.00;;;1.80
20848;BMP180;10584;50.854;12.902;2022-12-08T01:05:09;97354.00;;;1.90
20848;BMP180;10584;50.854;12.902;2022-12-08T01:10:12;97358.00;;;2.00
20848;BMP180;10584;50.854;12.902;2022-12-08T01:15:15;97361.00;;;2.00
20848;BMP180;10584;50.854;12.902;2022-12-08T01:20:18;97363.00;;;1.90
20848;BMP180;10584;50.854;12.902;2022-12-08T01:25:21;97354.00;;;2.00
20848;BMP180;10584;50.854;12.902;2022-12-08T01:30:24;97349.00;;;2.10
20848;BMP180;10584;50.854;12.902;2022-12-08T01:35:27;97346.00;;;1.90
20848;BMP180;10584;50.854;12.902;2022-12-08T01:40:30;97347.00;;;2.00
20848;BMP180;10584;50.854;12.902;2022-12-08T01:45:33;97326.00;;;2.10
20848;BMP180;10584;50.854;12.902;2022-12-08T01:50:38;97326.00;;;2.00
20848;BMP180;10584;50.854;12.902;2022-12-08T01:55:51;97326.00;;;2.10
20848;BMP180;10584;50.854;12.902;2022-12-08T02:00:56;97318.00;;;2.00
20848;BMP180;10584;50.854;12.902;2022-12-08T02:06:00;97326.00;;;1.90
20848;BMP180;10584;50.854;12.902;2022-12-08T02:11:07;97323.00;;;2.00
20848;BMP180;10584;50.854;12.902;2022-12-08T02:22:03;97317.00;;;2.00
20848;BMP180;10584;50.854;12.902;2022-12-08T02:27:45;97301.00;;;2.00
20848;BMP180;10584;50.854;12.902;2022-12-08T02:39:10;97298.00;;;1.90
20848;BMP180;10584;50.854;12.902;2022-12-08T02:49:35;97289.00;;;2.10
20848;BMP180;10584;50.854;12.902;2022-12-08T02:54:47;97293.00;;;2.00
20848;BMP180;10584;50.854;12.902;2022-12-08T03:00:08;97291.00;;;1.90
20848;BMP180;10584;50.854;12.902;2022-12-08T03:10:40;97283.00;;;1.90
20848;BMP180;10584;50.854;12.902;2022-12-08T03:15:48;97284.00;;;2.00
20848;BMP180;10584;50.854;12.902;2022-12-08T03:20:52;97290.00;;;2.00
20848;BMP180;10584;50.854;12.902;2022-12-08T03:26:06;97287.00;;;2.00
20848;BMP180;10584;50.854;12.902;2022-12-08T03:31:12;97278.00;;;1.90
20848;BMP180;10584;50.854;12.902;2022-12-08T03:36:17;97288.00;;;1.80
20848;BMP180;10584;50.854;12.902;2022-12-08T03:41:21;97280.00;;;1.90
20848;BMP180;10584;50.854;12.902;2022-12-08T03:46:27;97265.00;;;1.80
20848;BMP180;10584;50.854;12.902;2022-12-08T03:51:30;97263.00;;;1.90
20848;BMP180;10584;50.854;12.902;2022-12-08T03:56:35;97257.00;;;1.80
20848;BMP180;10584;50.854;12.902;2022-12-08T04:01:39;97252.00;;;1.90
20848;BMP180;10584;50.854;12.902;2022-12-08T04:06:42;97245.00;;;1.90
20848;BMP180;10584;50.854;12.902;2022-12-08T04:11:45;97231.00;;;1.90
20848;BMP180;10584;50.854;12.902;2022-12-08T04:16:48;97224.00;;;1.80
20848;BMP180;10584;50.854;12.902;2022-12-08T04:21:51;97229.00;;;1.90
20848;BMP180;10584;50.854;12.902;2022-12-08T04:26:54;97226.00;;;1.90
20848;BMP180;10584;50.854;12.902;2022-12-08T04:31:57;97220.00;;;1.80
20848;BMP180;10584;50.854;12.902;2022-12-08T04:37:00;97228.00;;;1.80
20848;BMP180;10584;50.854;12.902;2022-12-08T04:42:03;97214.00;;;1.80
20848;BMP180;10584;50.854;12.902;2022-12-08T04:47:06;97219.00;;;1.70
20848;BMP180;10584;50.854;12.902;2022-12-08T04:52:09;97215.00;;;1.80
20848;BMP180;10584;50.854;12.902;2022-12-08T04:57:13;97211.00;;;1.80
20848;BMP180;10584;50.854;12.902;2022-12-08T05:02:16;97210.00;;;1.90
20848;BMP180;10584;50.854;12.902;2022-12-08T05:07:19;97210.00;;;1.80
20848;BMP180;10584;50.854;12.902;2022-12-08T05:12:23;97198.00;;;1.90
20848;BMP180;10584;50.854;12.902;2022-12-08T05:17:26;97202.00;;;2.00
20848;BMP180;10584;50.854;12.902;2022-12-08T05:22:29;97206.00;;;2.00
20848;BMP180;10584;50.854;12.902;2022-12-08T05:27:32;97206.00;;;1.90
20848;BMP180;10584;50.854;12.902;2022-12-08T05:32:36;97215.00;;;1.80
20848;BMP180;10584;50.854;12.902;2022-12-08T05:37:39;97211.00;;;1.60
20848;BMP180;10584;50.854;12.902;2022-12-08T05:42:42;97208.00;;;1.80
20848;BMP180;10584;50.854;12.902;2022-12-08T05:47:45;97209.00;;;1.90
20848;BMP180;10584;50.854;12.902;2022-12-08T05:52:48;97200.00;;;1.90
20848;BMP180;10584;50.854;12.902;2022-12-08T05:57:51;97201.00;;;1.90
20848;BMP180;10584;50.854;12.902;2022-12-08T06:02:54;97206.00;;;2.00
20848;BMP180;10584;50.854;12.902;2022-12-08T06:07:57;97202.00;;;2.00
20848;BMP180;10584;50.854;12.902;2022-12-08T06:13:00;97199.00;;;1.90
20848;BMP180;10584;50.854;12.902;2022-12-08T06:18:04;97210.00;;;1.90
20848;BMP180;10584;50.854;12.902;2022-12-08T06:23:07;97208.00;;;1.80
20848;BMP180;10584;50.854;12.902;2022-12-08T06:28:10;97209.00;;;1.80
20848;BMP180;10584;50.854;12.902;2022-12-08T06:33:14;97218.00;;;1.90
20848;BMP180;10584;50.854;12.902;2022-12-08T06:38:17;97220.00;;;1.80
20848;BMP180;10584;50.854;12.902;2022-12-08T06:43:20;97205.00;;;1.70
20848;BMP180;10584;50.854;12.902;2022-12-08T06:48:23;97213.00;;;1.70
20848;BMP180;10584;50.854;12.902;2022-12-08T06:53:26;97215.00;;;1.70
20848;BMP180;10584;50.854;12.902;2022-12-08T06:58:30;97212.00;;;1.60
20848;BMP180;10584;50.854;12.902;2022-12-08T07:03:33;97209.00;;;1.60
20848;BMP180;10584;50.854;12.902;2022-12-08T07:08:37;97207.00;;;1.60
20848;BMP180;10584;50.854;12.902;2022-12-08T07:13:40;97218.00;;;1.60
20848;BMP180;10584;50.854;12.902;2022-12-08T07:18:43;97223.00;;;1.60
20848;BMP180;10584;50.854;12.902;2022-12-08T07:23:48;97218.00;;;1.60
20848;BMP180;10584;50.854;12.902;2022-12-08T07:28:59;97219.00;;;1.70
20848;BMP180;10584;50.854;12.902;2022-12-08T07:34:02;97221.00;;;1.60
20848;BMP180;10584;50.854;12.902;2022-12-08T07:39:06;97216.00;;;1.70
20848;BMP180;10584;50.854;12.902;2022-12-08T07:44:12;97219.00;;;1.70
20848;BMP180;10584;50.854;12.902;2022-12-08T07:49:15;97213.00;;;1.60
20848;BMP180;10584;50.854;12.902;2022-12-08T07:54:18;97217.00;;;1.60
20848;BMP180;10584;50.854;12.902;2022-12-08T07:59:22;97217.00;;;1.70
20848;BMP180;10584;50.854;12.902;2022-12-08T08:04:25;97229.00;;;1.70
20848;BMP180;10584;50.854;12.902;2022-12-08T08:09:28;97214.00;;;1.80
20848;BMP180;10584;50.854;12.902;2022-12-08T08:14:31;97216.00;;;1.90
20848;BMP180;10584;50.854;12.902;2022-12-08T08:19:34;97223.00;;;2.00
20848;BMP180;10584;50.854;12.902;2022-12-08T08:24:37;97217.00;;;2.10
20848;BMP180;10584;50.854;12.902;2022-12-08T08:29:46;97216.00;;;2.10
20848;BMP180;10584;50.854;12.902;2022-12-08T08:34:50;97222.00;;;2.20
20848;BMP180;10584;50.854;12.902;2022-12-08T08:39:54;97227.00;;;2.30
20848;BMP180;10584;50.854;12.902;2022-12-08T08:44:57;97232.00;;;2.20
20848;BMP180;10584;50.854;12.902;2022-12-08T08:50:00;97225.00;;;2.30
20848;BMP180;10584;50.854;12.902;2022-12-08T08:55:04;97233.00;;;2.30
20848;BMP180;10584;50.854;12.902;2022-12-08T09:00:08;97225.00;;;2.40
20848;BMP180;10584;50.854;12.902;2022-12-08T09:05:12;97221.00;;;2.40
20848;BMP180;10584;50.854;12.902;2022-12-08T09:10:15;97216.00;;;2.40
20848;BMP180;10584;50.854;12.902;2022-12-08T09:15:18;97231.00;;;2.40
20848;BMP180;10584;50.854;12.902;2022-12-08T09:20:22;97218.00;;;2.50
20848;BMP180;10584;50.854;12.902;2022-12-08T09:25:25;97214.00;;;2.60
20848;BMP180;10584;50.854;12.902;2022-12-08T09:30:32;97218.00;;;2.60
20848;BMP180;10584;50.854;12.902;2022-12-08T09:35:35;97213.00;;;2.60
20848;BMP180;10584;50.854;12.902;2022-12-08T09:40:48;97207.00;;;2.60
20848;BMP180;10584;50.854;12.902;2022-12-08T09:45:52;97213.00;;;2.60
20848;BMP180;10584;50.854;12.902;2022-12-08T09:50:57;97196.00;;;2.60
20848;BMP180;10584;50.854;12.902;2022-12-08T09:56:07;97207.00;;;2.60
20848;BMP180;10584;50.854;12.902;2022-12-08T10:01:13;97202.00;;;2.60
20848;BMP180;10584;50.854;12.902;2022-12-08T10:11:38;97181.00;;;2.70
20848;BMP180;10584;50.854;12.902;2022-12-08T10:16:48;97171.00;;;2.80
20848;BMP180;10584;50.854;12.902;2022-12-08T10:21:53;97172.00;;;3.00
20848;BMP180;10584;50.854;12.902;2022-12-08T10:26:59;97185.00;;;2.90
20848;BMP180;10584;50.854;12.902;2022-12-08T10:32:19;97176.00;;;2.90
20848;BMP180;10584;50.854;12.902;2022-12-08T10:37:22;97167.00;;;3.00
20848;BMP180;10584;50.854;12.902;2022-12-08T10:42:34;97164.00;;;3.10
20848;BMP180;10584;50.854;12.902;2022-12-08T10:47:41;97170.00;;;3.10
20848;BMP180;10584;50.854;12.902;2022-12-08T10:52:58;97150.00;;;3.10
20848;BMP180;10584;50.854;12.902;2022-12-08T10:58:01;97153.00;;;3.00
20848;BMP180;10584;50.854;12.902;2022-12-08T11:03:04;97145.00;;;3.10
20848;BMP180;10584;50.854;12.902;2022-12-08T11:08:08;97144.00;;;3.10
20848;BMP180;10584;50.854;12.902;2022-12-08T11:13:18;97148.00;;;3.10
20848;BMP180;10584;50.854;12.902;2022-12-08T11:18:38;97135.00;;;3.10
20848;BMP180;10584;50.854;12.902;2022-12-08T11:23:47;97134.00;;;3.10
20848;BMP180;10584;50.854;12.902;2022-12-08T11:28:50;97135.00;;;3.20
20848;BMP180;10584;50.854;12.902;2022-12-08T11:33:54;97129.00;;;3.30
20848;BMP180;10584;50.854;12.902;2022-12-08T11:39:00;97126.00;;;3.30
20848;BMP180;10584;50.854;12.902;2022-12-08T11:49:39;97109.00;;;3.30
20848;BMP180;10584;50.854;12.902;2022-12-08T11:59:56;97105.00;;;3.30
20848;BMP180;10584;50.854;12.902;2022-12-08T12:05:39;97108.00;;;3.40
20848;BMP180;10584;50.854;12.902;2022-12-08T12:16:50;97097.00;;;3.50
20848;BMP180;10584;50.854;12.902;2022-12-08T12:21:58;97102.00;;;3.70
20848;BMP180;10584;50.854;12.902;2022-12-08T12:27:22;97107.00;;;3.60
20848;BMP180;10584;50.854;12.902;2022-12-08T12:32:57;97114.00;;;3.50
20848;BMP180;10584;50.854;12.902;2022-12-08T12:38:12;97112.00;;;3.40
20848;BMP180;10584;50.854;12.902;2022-12-08T12:43:38;97106.00;;;3.30
20848;BMP180;10584;50.854;12.902;2022-12-08T12:48:41;97097.00;;;3.20
20848;BMP180;10584;50.854;12.902;2022-12-08T12:53:46;97092.00;;;3.30
20848;BMP180;10584;50.854;12.902;2022-12-08T12:58:53;97083.00;;;3.30
20848;BMP180;10584;50.854;12.902;2022-12-08T13:04:07;97066.00;;;3.30
20848;BMP180;10584;50.854;12.902;2022-12-08T13:14:59;97061.00;;;3.30
20848;BMP180;10584;50.854;12.902;2022-12-08T13:20:05;97065.00;;;3.20
20848;BMP180;10584;50.854;12.902;2022-12-08T13:30:43;97060.00;;;3.40
20848;BMP180;10584;50.854;12.902;2022-12-08T13:36:34;97053.00;;;3.30
20848;BMP180;10584;50.854;12.902;2022-12-08T13:41:19;97060.00;;;3.40
20848;BMP180;10584;50.854;12.902;2022-12-08T13:46:39;97061.00;;;3.30
20848;BMP180;10584;50.854;12.902;2022-12-08T13:52:05;97061.00;;;3.40
20848;BMP180;10584;50.854;12.902;2022-12-08T13:57:36;97064.00;;;3.40
20848;BMP180;10584;50.854;12.902;2022-12-08T14:02:42;97067.00;;;3.40
20848;BMP180;10584;50.854;12.902;2022-12-08T14:07:53;97078.00;;;3.30
20848;BMP180;10584;50.854;12.902;2022-12-08T14:13:00;97078.00;;;3.20
20848;BMP180;10584;50.854;12.902;2022-12-08T14:18:05;97078.00;;;3.20
20848;BMP180;10584;50.854;12.902;2022-12-08T14:23:08;97072.00;;;3.20
20848;BMP180;10584;50.854;12.902;2022-12-08T14:28:11;97071.00;;;3.00
20848;BMP180;10584;50.854;12.902;2022-12-08T14:33:15;97073.00;;;3.10
20848;BMP180;10584;50.854;12.902;2022-12-08T14:38:20;97076.00;;;3.10
20848;BMP180;10584;50.854;12.902;2022-12-08T14:43:26;97082.00;;;3.00
20848;BMP180;10584;50.854;12.902;2022-12-08T14:58:39;97090.00;;;2.90
20848;BMP180;10584;50.854;12.902;2022-12-08T15:03:43;97084.00;;;2.90
20848;BMP180;10584;50.854;12.902;2022-12-08T15:08:56;97097.00;;;3.00
20848;BMP180;10584;50.854;12.902;2022-12-08T15:14:02;97091.00;;;3.00
20848;BMP180;10584;50.854;12.902;2022-12-08T15:19:22;97094.00;;;2.90
20848;BMP180;10584;50.854;12.902;2022-12-08T15:24:30;97096.00;;;2.90
20848;BMP180;10584;50.854;12.902;2022-12-08T15:29:33;97097.00;;;2.90
20848;BMP180;10584;50.854;12.902;2022-12-08T15:34:40;97100.00;;;2.90
20848;BMP180;10584;50.854;12.902;2022-12-08T15:39:43;97102.00;;;2.90
20848;BMP180;10584;50.854;12.902;2022-12-08T15:44:46;97100.00;;;2.90
20848;BMP180;10584;50.854;12.902;2022-12-08T15:49:50;97097.00;;;2.80
20848;BMP180;10584;50.854;12.902;2022-12-08T15:54:56;97078.00;;;2.60
20848;BMP180;10584;50.854;12.902;2022-12-08T16:00:00;97084.00;;;2.60
20848;BMP180;10584;50.854;12.902;2022-12-08T16:05:03;97082.00;;;2.50
20848;BMP180;10584;50.854;12.902;2022-12-08T16:10:27;97086.00;;;2.40
20848;BMP180;10584;50.854;12.902;2022-12-08T16:15:50;97085.00;;;2.40
20848;BMP180;10584;50.854;12.902;2022-12-08T16:21:05;97089.00;;;2.40
20848;BMP180;10584;50.854;12.902;2022-12-08T16:26:28;97084.00;;;2.30
20848;BMP180;10584;50.854;12.902;2022-12-08T16:31:51;97092.00;;;2.40
20848;BMP180;10584;50.854;12.902;2022-12-08T16:36:54;97085.00;;;2.40
20848;BMP180;10584;50.854;12.902;2022-12-08T16:41:57;97088.00;;;2.30
20848;BMP180;10584;50.854;12.902;2022-12-08T16:47:19;97095.00;;;2.30
20848;BMP180;10584;50.854;12.902;2022-12-08T16:52:22;97086.00;;;2.30
20848;BMP180;10584;50.854;12.902;2022-12-08T16:57:25;97088.00;;;2.20
20848;BMP180;10584;50.854;12.902;2022-12-08T17:02:28;97080.00;;;2.20
20848;BMP180;10584;50.854;12.902;2022-12-08T17:07:32;97082.00;;;2.30
20848;BMP180;10584;50.854;12.902;2022-12-08T17:12:36;97091.00;;;2.30
20848;BMP180;10584;50.854;12.902;2022-12-08T17:17:39;97090.00;;;2.40
20848;BMP180;10584;50.854;12.902;2022-12-08T17:22:43;97090.00;;;2.30
20848;BMP180;10584;50.854;12.902;2022-12-08T17:27:46;97089.00;;;2.40
20848;BMP180;10584;50.854;12.902;2022-12-08T17:32:49;97085.00;;;2.50
20848;BMP180;10584;50.854;12.902;2022-12-08T17:37:54;97091.00;;;2.50
20848;BMP180;10584;50.854;12.902;2022-12-08T17:42:57;97086.00;;;2.40
20848;BMP180;10584;50.854;12.902;2022-12-08T17:48:00;97092.00;;;2.40
20848;BMP180;10584;50.854;12.902;2022-12-08T17:53:03;97080.00;;;2.40
20848;BMP180;10584;50.854;12.902;2022-12-08T17:58:07;97099.00;;;2.50
20848;BMP180;10584;50.854;12.902;2022-12-08T18:03:11;97095.00;;;2.50
20848;BMP180;10584;50.854;12.902;2022-12-08T18:08:14;97082.00;;;2.50
20848;BMP180;10584;50.854;12.902;2022-12-08T18:13:17;97084.00;;;2.50
20848;BMP180;10584;50.854;12.902;2022-12-08T18:18:20;97098.00;;;2.50
20848;BMP180;10584;50.854;12.902;2022-12-08T18:23:24;97086.00;;;2.40
20848;BMP180;10584;50.854;12.902;2022-12-08T18:28:27;97077.00;;;2.50
20848;BMP180;10584;50.854;12.902;2022-12-08T18:33:30;97076.00;;;2.50
20848;BMP180;10584;50.854;12.902;2022-12-08T18:38:33;97077.00;;;2.60
20848;BMP180;10584;50.854;12.902;2022-12-08T18:43:37;97085.00;;;2.50
20848;BMP180;10584;50.854;12.902;2022-12-08T18:48:43;97080.00;;;2.50
20848;BMP180;10584;50.854;12.902;2022-12-08T18:53:47;97087.00;;;2.50
20848;BMP180;10584;50.854;12.902;2022-12-08T18:58:51;97085.00;;;2.50
20848;BMP180;10584;50.854;12.902;2022-12-08T19:03:54;97099.00;;;2.50
20848;BMP180;10584;50.854;12.902;2022-12-08T19:09:17;97082.00;;;2.50
20848;BMP180;10584;50.854;12.902;2022-12-08T19:14:21;97087.00;;;2.50
20848;BMP180;10584;50.854;12.902;2022-12-08T19:19:30;97089.00;;;2.50
20848;BMP180;10584;50.854;12.902;2022-12-08T19:24:36;97087.00;;;2.40
20848;BMP180;10584;50.854;12.902;2022-12-08T19:29:39;97100.00;;;2.20
20848;BMP180;10584;50.854;12.902;2022-12-08T19:34:44;97095.00;;;2.40
20848;BMP180;10584;50.854;12.902;2022-12-08T19:39:47;97109.00;;;2.40
20848;BMP180;10584;50.854;12.902;2022-12-08T19:45:13;97105.00;;;2.30
20848;BMP180;10584;50.854;12.902;2022-12-08T19:50:16;97109.00;;;2.10
20848;BMP180;10584;50.854;12.902;2022-12-08T19:55:38;97112.00;;;2.20
20848;BMP180;10584;50.854;12.902;2022-12-08T20:00:42;97115.00;;;2.20
20848;BMP180;10584;50.854;12.902;2022-12-08T20:05:47;97111.00;;;2.10
20848;BMP180;10584;50.854;12.902;2022-12-08T20:10:51;97108.00;;;2.20
20848;BMP180;10584;50.854;12.902;2022-12-08T20:15:58;97113.00;;;2.30
20848;BMP180;10584;50.854;12.902;2022-12-08T20:21:01;97107.00;;;2.20
20848;BMP180;10584;50.854;12.902;2022-12-08T20:26:06;97101.00;;;2.00
20848;BMP180;10584;50.854;12.902;2022-12-08T20:31:18;97101.00;;;2.20
20848;BMP180;10584;50.854;12.902;2022-12-08T20:36:22;97108.00;;;1.90
20848;BMP180;10584;50.854;12.902;2022-12-08T20:41:25;97116.00;;;2.10
20848;BMP180;10584;50.854;12.902;2022-12-08T20:46:29;97117.00;;;2.10
20848;BMP180;10584;50.854;12.902;2022-12-08T20:51:33;97115.00;;;2.00
20848;BMP180;10584;50.854;12.902;2022-12-08T20:56:37;97110.00;;;2.30
20848;BMP180;10584;50.854;12.902;2022-12-08T21:01:48;97121.00;;;2.10
20848;BMP180;10584;50.854;12.902;2022-12-08T21:06:51;97114.00;;;2.20
20848;BMP180;10584;50.854;12.902;2022-12-08T21:11:55;97131.00;;;2.10
20848;BMP180;10584;50.854;12.902;2022-12-08T21:16:58;97129.00;;;2.20
20848;BMP180;10584;50.854;12.902;2022-12-08T21:22:01;97137.00;;;2.20
20848;BMP180;10584;50.854;12.902;2022-12-08T21:27:04;97130.00;;;2.10
20848;BMP180;10584;50.854;12.902;2022-12-08T21:32:07;97130.00;;;2.00
20848;BMP180;10584;50.854;12.902;2022-12-08T21:37:11;97120.00;;;2.10
20848;BMP180;10584;50.854;12.902;2022-12-08T21:42:14;97120.00;;;2.10
20848;BMP180;10584;50.854;12.902;2022-12-08T21:47:36;97121.00;;;1.90
20848;BMP180;10584;50.854;12.902;2022-12-08T21:52:41;97115.00;;;1.90
20848;BMP180;10584;50.854;12.902;2022-12-08T21:57:45;97118.00;;;1.80
20848;BMP180;10584;50.854;12.902;2022-12-08T22:02:48;97125.00;;;1.80
20848;BMP180;10584;50.854;12.902;2022-12-08T22:07:51;97130.00;;;1.80
20848;BMP180;10584;50.854;12.902;2022-12-08T22:12:55;97130.00;;;1.60
20848;BMP180;10584;50.854;12.902;2022-12-08T22:17:58;97132.00;;;1.80
20848;BMP180;10584;50.854;12.902;2022-12-08T22:23:01;97128.00;;;1.90
20848;BMP180;10584;50.854;12.902;2022-12-08T22:28:05;97130.00;;;1.80
20848;BMP180;10584;50.854;12.902;2022-12-08T22:33:08;97128.00;;;1.80
20848;BMP180;10584;50.854;12.902;2022-12-08T22:38:12;97123.00;;;1.70
20848;BMP180;10584;50.854;12.902;2022-12-08T22:43:15;97116.00;;;1.60
20848;BMP180;10584;50.854;12.902;2022-12-08T22:48:18;97117.00;;;1.60
20848;BMP180;10584;50.854;12.902;2022-12-08T22:53:22;97126.00;;;1.60
20848;BMP180;10584;50.854;12.902;2022-12-08T22:58:25;97131.00;;;1.60
20848;BMP180;10584;50.854;12.902;2022-12-08T23:03:30;97123.00;;;1.70
20848;BMP180;10584;50.854;12.902;2022-12-08T23:08:34;97134.00;;;1.70
20848;BMP180;10584;50.854;12.902;2022-12-08T23:13:38;97137.00;;;1.70
20848;BMP180;10584;50.854;12.902;2022-12-08T23:18:44;97117.00;;;1.70
20848;BMP180;10584;50.854;12.902;2022-12-08T23:23:51;97124.00;;;1.60
20848;BMP180;10584;50.854;12.902;2022-12-08T23:28:55;97118.00;;;1.50
20848;BMP180;10584;50.854;12.902;2022-12-08T23:33:58;97119.00;;;1.60
20848;BMP180;10584;50.854;12.902;2022-12-08T23:39:01;97123.00;;;1.50
20848;BMP180;10584;50.854;12.902;2022-12-08T23:44:05;97117.00;;;1.40
20848;BMP180;10584;50.854;12.902;2022-12-08T23:49:08;97111.00;;;1.50
20848;BMP180;10584;50.854;12.902;2022-12-08T23:54:12;97115.00;;;1.60
20848;BMP180;10584;50.854;12.902;2022-12-08T23:59:15;97127.00;;;1.50
